createdAt,value
2022-09-03T00:01:43.916Z,0.80
2022-09-03T00:04:29.083Z,2.90
2022-09-03T00:07:03.038Z,5.15
2022-09-03T00:09:43.857Z,14.93
2022-09-03T00:12:19.893Z,6.60
2022-09-03T00:15:06.009Z,2.72
2022-09-03T00:17:47.962Z,2.08
2022-09-03T00:20:22.017Z,5.93
2022-09-03T00:22:55.267Z,4.53
2022-09-03T00:25:29.845Z,5.63
2022-09-03T00:28:00.011Z,3.60
2022-09-03T00:30:28.084Z,3.80
2022-09-03T00:33:10.809Z,2.85
2022-09-03T00:36:09.331Z,2.78
2022-09-03T00:38:37.998Z,4.03
2022-09-03T00:41:43.023Z,3.55
2022-09-03T00:44:30.494Z,7.65
2022-09-03T00:47:08.512Z,7.95
2022-09-03T00:49:37.931Z,2.53
2022-09-03T00:52:09.691Z,5.57
2022-09-03T00:55:01.396Z,8.57
2022-09-03T00:58:02.126Z,4.47
2022-09-03T01:00:29.485Z,2.28
2022-09-03T01:03:09.280Z,8.02
2022-09-03T01:05:48.560Z,4.70
2022-09-03T01:08:34.165Z,4.40
2022-09-03T01:11:35.395Z,2.30
2022-09-03T01:14:26.412Z,3.88
2022-09-03T01:16:59.064Z,4.10
2022-09-03T01:19:37.894Z,7.60
2022-09-03T01:22:27.582Z,7.30
2022-09-03T01:24:59.324Z,3.10
2022-09-03T01:27:46.939Z,5.13
2022-09-03T01:30:19.726Z,4.18
2022-09-03T01:33:02.047Z,5.47
2022-09-03T01:35:35.193Z,8.52
2022-09-03T01:38:35.406Z,4.88
2022-09-03T01:41:47.335Z,2.83
2022-09-03T01:46:42.565Z,6.82
2022-09-03T01:49:34.246Z,5.28
2022-09-03T01:54:58.927Z,3.25
2022-09-03T01:57:42.022Z,7.95
2022-09-03T02:00:20.634Z,4.10
2022-09-03T02:02:51.578Z,5.03
2022-09-03T02:05:27.047Z,7.13
2022-09-03T02:07:57.047Z,4.70
2022-09-03T02:10:38.786Z,4.43
2022-09-03T02:13:09.941Z,5.60
2022-09-03T02:15:43.800Z,5.40
2022-09-03T02:18:17.307Z,7.45
2022-09-03T02:20:45.482Z,3.72
2022-09-03T02:23:12.282Z,7.78
2022-09-03T02:25:44.910Z,3.67
2022-09-03T02:28:27.981Z,3.50
2022-09-03T02:30:55.206Z,6.90
2022-09-03T02:33:22.162Z,2.50
2022-09-03T02:35:49.246Z,8.68
2022-09-03T02:38:22.569Z,6.78
2022-09-03T02:40:49.460Z,9.10
2022-09-03T02:43:31.096Z,2.63
2022-09-03T02:46:04.343Z,6.53
2022-09-03T02:48:31.490Z,8.55
2022-09-03T02:50:58.210Z,7.63
2022-09-03T02:53:25.299Z,3.17
2022-09-03T02:55:52.217Z,5.00
2022-09-03T02:58:18.977Z,5.57
2022-09-03T03:00:45.812Z,5.10
2022-09-03T03:03:12.534Z,9.23
2022-09-03T03:05:49.140Z,8.88
2022-09-03T03:08:17.230Z,5.22
2022-09-03T03:10:45.192Z,3.13
2022-09-03T03:13:12.670Z,4.15
2022-09-03T03:15:39.460Z,10.32
2022-09-03T03:18:07.738Z,9.10
2022-09-03T03:20:34.654Z,7.53
2022-09-03T03:23:05.835Z,5.03
2022-09-03T03:25:33.730Z,5.10
2022-09-03T03:28:01.211Z,5.78
2022-09-03T03:30:28.489Z,4.40
2022-09-03T03:32:55.860Z,5.88
2022-09-03T03:35:22.861Z,2.67
2022-09-03T03:37:49.849Z,5.95
2022-09-03T03:40:17.102Z,7.82
2022-09-03T03:42:43.945Z,5.20
2022-09-03T03:45:10.969Z,5.53
2022-09-03T03:47:37.789Z,4.47
2022-09-03T03:50:05.354Z,7.07
2022-09-03T03:52:32.454Z,6.63
2022-09-03T03:54:59.240Z,5.63
2022-09-03T03:57:26.035Z,4.28
2022-09-03T03:59:52.790Z,9.05
2022-09-03T04:02:19.613Z,8.23
2022-09-03T04:04:46.555Z,7.00
2022-09-03T04:07:13.485Z,6.60
2022-09-03T04:09:40.349Z,5.97
2022-09-03T04:12:08.828Z,3.35
2022-09-03T04:14:35.858Z,3.90
2022-09-03T04:17:03.281Z,3.35
2022-09-03T04:19:30.463Z,4.07
2022-09-03T04:21:57.437Z,4.25
2022-09-03T04:24:24.179Z,6.50
2022-09-03T04:26:50.953Z,11.25
2022-09-03T04:29:18.703Z,5.97
2022-09-03T04:32:05.383Z,25.42
2022-09-03T04:34:32.287Z,9.10
2022-09-03T04:36:59.329Z,5.35
2022-09-03T04:39:26.346Z,2.63
2022-09-03T04:41:53.215Z,7.07
2022-09-03T04:44:20.047Z,7.25
2022-09-03T04:46:48.383Z,8.73
2022-09-03T04:49:15.267Z,3.83
2022-09-03T04:51:42.357Z,14.88
2022-09-03T04:54:10.445Z,5.75
2022-09-03T04:56:39.485Z,6.57
2022-09-03T04:59:08.867Z,7.70
2022-09-03T05:01:38.011Z,7.22
2022-09-03T05:04:06.041Z,4.68
2022-09-03T05:06:33.951Z,8.68
2022-09-03T05:09:01.428Z,10.95
2022-09-03T05:11:30.062Z,6.63
2022-09-03T05:13:58.947Z,4.40
2022-09-03T05:16:28.444Z,7.10
2022-09-03T05:18:59.320Z,6.85
2022-09-03T05:21:27.026Z,5.72
2022-09-03T05:23:54.242Z,6.00
2022-09-03T05:26:29.362Z,8.13
2022-09-03T05:28:59.113Z,6.15
2022-09-03T05:31:28.616Z,6.57
2022-09-03T05:34:00.682Z,6.00
2022-09-03T05:36:34.896Z,4.72
2022-09-03T05:39:02.118Z,8.13
2022-09-03T05:41:29.304Z,6.35
2022-09-03T05:43:59.673Z,7.50
2022-09-03T05:46:38.539Z,3.60
2022-09-03T05:49:06.879Z,7.35
2022-09-03T05:51:35.867Z,8.85
2022-09-03T05:54:03.145Z,6.85
2022-09-03T05:56:31.831Z,7.20
2022-09-03T05:59:01.916Z,3.80
2022-09-03T06:01:34.502Z,8.20
2022-09-03T06:04:04.903Z,5.85
2022-09-03T06:06:35.139Z,5.28
2022-09-03T06:09:23.126Z,5.15
2022-09-03T06:11:52.485Z,8.88
2022-09-03T06:14:20.376Z,6.60
2022-09-03T06:16:53.193Z,10.52
2022-09-03T06:19:20.399Z,7.95
2022-09-03T06:21:47.856Z,5.00
2022-09-03T06:24:26.256Z,7.53
2022-09-03T06:26:54.688Z,7.57
2022-09-03T06:29:22.193Z,11.10
2022-09-03T06:31:51.058Z,11.18
2022-09-03T06:34:18.922Z,7.75
2022-09-03T06:36:46.361Z,6.22
2022-09-03T06:39:13.086Z,5.75
2022-09-03T06:41:40.242Z,9.32
2022-09-03T06:44:11.939Z,8.05
2022-09-03T06:46:42.850Z,14.60
2022-09-03T06:49:11.382Z,14.07
2022-09-03T06:51:39.250Z,12.63
2022-09-03T06:54:11.329Z,15.18
2022-09-03T06:56:41.005Z,11.05
2022-09-03T06:59:13.063Z,17.58
2022-09-03T07:01:43.987Z,15.85
2022-09-03T07:04:13.014Z,11.80
2022-09-03T07:06:42.788Z,15.48
2022-09-03T07:09:11.778Z,8.38
2022-09-03T07:11:46.926Z,14.85
2022-09-03T07:14:15.221Z,13.00
2022-09-03T07:16:43.167Z,10.27
2022-09-03T07:19:10.467Z,10.85
2022-09-03T07:21:38.019Z,15.07
2022-09-03T07:24:06.288Z,8.25
2022-09-03T07:26:47.189Z,11.40
2022-09-03T07:29:16.089Z,8.75
2022-09-03T07:31:44.168Z,6.70
2022-09-03T07:34:12.860Z,7.40
2022-09-03T07:36:43.123Z,7.35
2022-09-03T07:39:13.993Z,16.00
2022-09-03T07:41:44.249Z,10.07
2022-09-03T07:44:11.017Z,6.20
2022-09-03T07:46:38.625Z,6.63
2022-09-03T07:49:06.481Z,10.70
2022-09-03T07:51:36.021Z,9.38
2022-09-03T07:54:08.397Z,11.30
2022-09-03T07:56:36.068Z,6.93
2022-09-03T07:59:04.405Z,7.13
2022-09-03T08:01:32.945Z,11.55
2022-09-03T08:04:01.899Z,11.25
2022-09-03T08:06:29.846Z,7.88
2022-09-03T08:09:04.910Z,8.40
2022-09-03T08:11:34.859Z,5.10
2022-09-03T08:14:06.681Z,8.23
2022-09-03T08:16:42.477Z,7.88
2022-09-03T08:19:09.614Z,6.35
2022-09-03T08:21:36.572Z,6.65
2022-09-03T08:24:03.625Z,5.45
2022-09-03T08:26:36.335Z,7.55
2022-09-03T08:29:04.634Z,10.38
2022-09-03T08:31:32.597Z,6.60
2022-09-03T08:34:03.373Z,6.05
2022-09-03T08:36:31.748Z,10.38
2022-09-03T08:39:04.272Z,3.80
2022-09-03T08:42:10.679Z,4.30
2022-09-03T08:45:01.021Z,6.32
2022-09-03T08:47:52.203Z,6.20
2022-09-03T08:50:42.193Z,4.85
2022-09-03T08:53:20.731Z,7.60
2022-09-03T08:56:21.516Z,6.43
2022-09-03T08:58:48.405Z,5.55
2022-09-03T09:01:43.333Z,11.20
2022-09-03T09:04:19.015Z,4.30
2022-09-03T09:07:01.174Z,5.18
2022-09-03T09:09:50.771Z,4.38
2022-09-03T09:12:20.542Z,4.35
2022-09-03T09:14:47.210Z,7.88
2022-09-03T09:17:32.833Z,5.50
2022-09-03T09:20:17.468Z,5.70
2022-09-03T09:22:50.105Z,4.05
2022-09-03T09:25:22.713Z,4.60
2022-09-03T09:28:03.293Z,2.47
2022-09-03T09:30:32.344Z,2.73
2022-09-03T09:33:00.780Z,7.13
2022-09-03T09:35:27.982Z,3.83
2022-09-03T09:37:57.640Z,4.55
2022-09-03T09:40:33.331Z,5.72
2022-09-03T09:43:12.057Z,5.72
2022-09-03T09:45:50.382Z,4.32
2022-09-03T09:48:31.804Z,1.13
2022-09-03T09:53:33.252Z,1.23
2022-09-03T09:56:00.577Z,2.28
2022-09-03T09:58:31.196Z,2.05
2022-09-03T10:01:03.313Z,2.10
2022-09-03T10:03:35.781Z,4.03
2022-09-03T10:06:28.555Z,1.70
2022-09-03T10:09:30.885Z,1.98
2022-09-03T10:12:23.564Z,3.75
2022-09-03T10:14:57.579Z,1.80
2022-09-03T10:17:36.989Z,2.25
2022-09-03T10:20:31.017Z,2.55
2022-09-03T10:23:03.851Z,2.20
2022-09-03T10:26:07.765Z,1.65
2022-09-03T10:28:42.795Z,4.40
2022-09-03T10:31:33.417Z,3.65
2022-09-03T10:34:24.698Z,1.80
2022-09-03T10:36:57.527Z,1.85
2022-09-03T10:39:51.624Z,3.42
2022-09-03T10:42:22.057Z,2.40
2022-09-03T10:44:51.731Z,3.10
2022-09-03T10:47:28.295Z,2.20
2022-09-03T10:50:01.863Z,1.42
2022-09-03T10:52:38.182Z,2.03
2022-09-03T10:55:22.541Z,2.83
2022-09-03T10:58:13.083Z,3.60
2022-09-03T11:00:47.811Z,5.00
2022-09-03T11:03:39.190Z,1.80
2022-09-03T11:08:49.884Z,2.95
2022-09-03T11:11:22.191Z,1.73
2022-09-03T11:14:02.666Z,1.42
2022-09-03T11:16:33.966Z,1.87
2022-09-03T11:19:06.519Z,2.55
2022-09-03T11:21:36.735Z,2.35
2022-09-03T11:24:10.384Z,1.95
2022-09-03T11:26:39.661Z,1.15
2022-09-03T11:29:20.689Z,2.08
2022-09-03T11:32:07.949Z,3.22
2022-09-03T11:34:55.532Z,1.98
2022-09-03T11:37:28.135Z,1.17
2022-09-03T11:40:04.089Z,3.63
2022-09-03T11:42:41.177Z,4.40
2022-09-03T11:45:19.780Z,3.42
2022-09-03T11:47:47.266Z,2.47
2022-09-03T11:50:21.728Z,0.82
2022-09-03T11:52:51.975Z,2.22
2022-09-03T11:55:38.429Z,0.95
2022-09-03T11:58:38.183Z,3.75
2022-09-03T12:01:10.689Z,6.05
2022-09-03T12:03:52.793Z,0.80
2022-09-03T12:06:57.410Z,0.82
2022-09-03T12:09:51.751Z,1.70
2022-09-03T12:12:39.274Z,1.83
2022-09-03T12:15:29.690Z,1.23
2022-09-03T12:18:20.005Z,2.53
2022-09-03T12:20:50.973Z,1.42
2022-09-03T12:23:31.834Z,3.50
2022-09-03T12:26:06.236Z,3.03
2022-09-03T12:28:38.017Z,1.67
2022-09-03T12:31:23.812Z,3.58
2022-09-03T12:33:54.191Z,1.55
2022-09-03T12:36:23.066Z,4.17
2022-09-03T12:39:10.938Z,2.78
2022-09-03T12:41:38.023Z,3.53
2022-09-03T12:44:05.430Z,1.60
2022-09-03T12:46:34.344Z,1.95
2022-09-03T12:52:12.896Z,5.80
2022-09-03T12:54:50.475Z,5.90
2022-09-03T12:57:22.553Z,3.85
2022-09-03T12:59:54.770Z,2.05
2022-09-03T13:02:31.020Z,2.40
2022-09-03T13:04:58.080Z,2.60
2022-09-03T13:07:27.433Z,1.52
2022-09-03T13:10:04.382Z,1.10
2022-09-03T13:12:35.524Z,1.85
2022-09-03T13:17:47.692Z,1.30
2022-09-03T13:20:27.514Z,2.40
2022-09-03T13:23:30.915Z,1.77
2022-09-03T13:26:21.773Z,2.15
2022-09-03T13:29:09.864Z,1.40
2022-09-03T13:31:43.910Z,1.08
2022-09-03T13:34:32.240Z,2.55
2022-09-03T13:37:06.152Z,1.25
2022-09-03T13:39:44.602Z,1.70
2022-09-03T13:42:19.018Z,2.05
2022-09-03T13:44:51.102Z,1.25
2022-09-03T13:47:28.705Z,3.13
2022-09-03T13:50:24.245Z,2.50
2022-09-03T13:52:58.697Z,1.77
2022-09-03T13:55:40.626Z,2.42
2022-09-03T13:58:30.964Z,2.15
2022-09-03T14:00:58.525Z,2.60
2022-09-03T14:03:32.482Z,0.80
2022-09-03T14:06:11.343Z,3.08
2022-09-03T14:09:04.787Z,1.02
2022-09-03T14:11:56.240Z,0.70
2022-09-03T14:17:23.810Z,0.80
2022-09-03T14:20:00.350Z,1.65
2022-09-03T14:22:45.935Z,1.48
2022-09-03T14:25:17.183Z,1.02
2022-09-03T14:27:44.203Z,1.52
2022-09-03T14:30:17.009Z,1.30
2022-09-03T14:32:56.032Z,0.98
2022-09-03T14:35:39.635Z,0.93
2022-09-03T14:38:30.786Z,1.23
2022-09-03T14:41:16.099Z,1.23
2022-09-03T14:44:31.269Z,0.55
2022-09-03T14:47:37.808Z,2.17
2022-09-03T14:50:28.465Z,1.50
2022-09-03T14:53:27.966Z,0.98
2022-09-03T14:56:11.022Z,0.80
2022-09-03T14:59:21.901Z,0.52
2022-09-03T15:02:15.275Z,0.50
2022-09-03T15:05:11.010Z,1.63
2022-09-03T15:07:41.482Z,1.92
2022-09-03T15:10:11.640Z,1.60
2022-09-03T15:12:45.035Z,0.73
2022-09-03T15:15:28.323Z,1.23
2022-09-03T15:18:15.587Z,2.65
2022-09-03T15:20:54.630Z,1.27
2022-09-03T15:23:49.540Z,0.73
2022-09-03T15:26:38.214Z,5.03
2022-09-03T15:29:51.666Z,2.05
2022-09-03T15:32:24.744Z,2.08
2022-09-03T15:35:07.062Z,3.53
2022-09-03T15:37:49.161Z,3.67
2022-09-03T15:40:27.842Z,2.15
2022-09-03T15:43:21.980Z,2.15
2022-09-03T15:45:48.768Z,2.10
2022-09-03T15:48:45.496Z,1.13
2022-09-03T15:51:27.218Z,1.63
2022-09-03T15:54:16.426Z,1.08
2022-09-03T15:57:10.556Z,1.20
2022-09-03T15:59:55.713Z,4.47
2022-09-03T16:02:47.803Z,6.78
2022-09-03T16:05:29.192Z,1.27
2022-09-03T16:11:16.969Z,0.60
2022-09-03T16:14:04.890Z,4.60
2022-09-03T16:16:52.515Z,2.17
2022-09-03T16:19:27.199Z,1.02
2022-09-03T16:22:41.725Z,2.55
2022-09-03T16:25:23.305Z,1.25
2022-09-03T16:28:09.028Z,0.90
2022-09-03T16:30:40.062Z,2.42
2022-09-03T16:33:44.670Z,3.08
2022-09-03T16:36:11.401Z,2.00
2022-09-03T16:39:02.400Z,2.25
2022-09-03T16:41:56.836Z,0.88
2022-09-03T16:44:39.002Z,1.08
2022-09-03T16:47:24.496Z,1.08
2022-09-03T16:50:23.575Z,1.33
2022-09-03T16:53:15.845Z,1.92
2022-09-03T16:55:51.901Z,1.60
2022-09-03T16:58:34.866Z,3.13
2022-09-03T17:01:27.917Z,3.10
2022-09-03T17:04:23.629Z,1.38
2022-09-03T17:07:00.408Z,0.95
2022-09-03T17:10:02.563Z,1.83
2022-09-03T17:12:43.753Z,1.02
2022-09-03T17:15:39.152Z,2.08
2022-09-03T17:18:30.330Z,2.70
2022-09-03T17:21:34.741Z,0.98
2022-09-03T17:24:04.417Z,2.30
2022-09-03T17:26:55.559Z,0.77
2022-09-03T17:30:00.033Z,1.85
2022-09-03T17:32:39.998Z,0.68
2022-09-03T17:35:17.718Z,0.75
2022-09-03T17:38:06.113Z,1.23
2022-09-03T17:41:05.147Z,0.25
2022-09-03T17:44:00.443Z,3.00
2022-09-03T17:46:42.499Z,0.32
2022-09-03T17:49:22.357Z,0.60
2022-09-03T17:52:07.300Z,1.00
2022-09-03T17:54:49.760Z,1.90
2022-09-03T17:57:48.467Z,0.40
2022-09-03T18:00:25.674Z,0.47
2022-09-03T18:03:02.057Z,0.50
2022-09-03T18:05:41.893Z,1.65
2022-09-03T18:08:24.937Z,0.75
2022-09-03T18:11:09.713Z,2.03
2022-09-03T18:13:58.201Z,0.63
2022-09-03T18:16:31.966Z,1.02
2022-09-03T18:20:02.211Z,0.43
2022-09-03T18:22:55.391Z,1.25
2022-09-03T18:25:44.990Z,0.30
2022-09-03T18:28:37.131Z,1.02
2022-09-03T18:31:22.722Z,1.70
2022-09-03T18:34:08.022Z,0.70
2022-09-03T18:36:53.666Z,1.63
2022-09-03T18:39:47.519Z,0.65
2022-09-03T18:42:59.401Z,1.48
2022-09-03T18:49:33.315Z,3.40
2022-09-03T18:52:24.013Z,0.40
2022-09-03T18:55:56.570Z,1.00
2022-09-03T18:59:03.749Z,0.85
2022-09-03T19:02:00.604Z,1.35
2022-09-03T19:05:09.397Z,3.60
2022-09-03T19:08:04.931Z,0.63
2022-09-03T19:11:04.645Z,1.80
2022-09-03T19:13:55.373Z,0.90
2022-09-03T19:16:45.591Z,1.50
2022-09-03T19:19:55.862Z,1.15
2022-09-03T19:22:59.029Z,4.28
2022-09-03T19:25:46.698Z,1.15
2022-09-03T19:28:33.577Z,1.77
2022-09-03T19:31:58.087Z,1.35
2022-09-03T19:35:15.885Z,3.67
2022-09-03T19:38:34.672Z,2.25
2022-09-03T19:41:41.972Z,3.55
2022-09-03T19:45:18.011Z,5.53
2022-09-03T19:48:03.367Z,0.60
2022-09-03T19:50:55.652Z,1.65
2022-09-03T19:53:42.223Z,0.95
2022-09-03T19:56:39.984Z,2.20
2022-09-03T19:59:30.947Z,0.60
2022-09-03T20:02:18.111Z,2.03
2022-09-03T20:05:25.622Z,0.77
2022-09-03T20:08:14.919Z,1.90
2022-09-03T20:10:44.247Z,2.42
2022-09-03T20:13:21.358Z,3.15
2022-09-03T20:16:00.504Z,2.83
2022-09-03T20:19:05.173Z,0.90
2022-09-03T20:21:58.263Z,3.58
2022-09-03T20:24:45.885Z,3.58
2022-09-03T20:27:15.603Z,4.03
2022-09-03T20:30:09.339Z,7.00
2022-09-03T20:33:05.538Z,6.18
2022-09-03T20:35:33.815Z,3.22
2022-09-03T20:38:48.160Z,4.78
2022-09-03T20:41:30.228Z,5.13
2022-09-03T20:44:08.474Z,2.75
2022-09-03T20:46:53.686Z,4.05
2022-09-03T20:50:04.435Z,3.03
2022-09-03T20:53:05.187Z,3.05
2022-09-03T20:55:45.330Z,2.63
2022-09-03T20:58:32.080Z,4.90
2022-09-03T21:00:59.691Z,5.43
2022-09-03T21:04:06.963Z,8.18
2022-09-03T21:06:42.560Z,3.28
2022-09-03T21:09:12.047Z,4.40
2022-09-03T21:11:48.139Z,3.80
2022-09-03T21:14:34.791Z,3.50
2022-09-03T21:17:05.085Z,3.45
2022-09-03T21:19:49.342Z,3.90
2022-09-03T21:22:54.133Z,6.57
2022-09-03T21:25:28.350Z,6.78
2022-09-03T21:28:01.425Z,3.33
2022-09-03T21:30:30.396Z,2.75
2022-09-03T21:33:04.790Z,2.83
2022-09-03T21:35:54.725Z,4.18
2022-09-03T21:38:25.145Z,5.78
2022-09-03T21:41:12.722Z,10.87
2022-09-03T21:44:05.496Z,4.90
2022-09-03T21:47:02.195Z,5.97
2022-09-03T21:49:39.180Z,4.75
2022-09-03T21:52:17.469Z,7.25
2022-09-03T21:54:44.196Z,4.10
2022-09-03T21:57:22.233Z,5.15
2022-09-03T22:00:07.165Z,3.60
2022-09-03T22:02:34.053Z,4.40
2022-09-03T22:05:03.204Z,2.90
2022-09-03T22:07:39.029Z,7.13
2022-09-03T22:10:39.414Z,3.70
2022-09-03T22:13:21.214Z,5.18
2022-09-03T22:15:50.854Z,6.93
2022-09-03T22:18:29.253Z,2.33
2022-09-03T22:21:12.765Z,4.53
2022-09-03T22:24:20.023Z,5.47
2022-09-03T22:27:15.704Z,5.13
2022-09-03T22:29:57.767Z,3.85
2022-09-03T22:32:36.358Z,2.42
2022-09-03T22:35:20.185Z,2.65
2022-09-03T22:38:05.573Z,4.72
2022-09-03T22:40:38.138Z,3.20
2022-09-03T22:43:21.062Z,3.30
2022-09-03T22:46:02.885Z,2.85
2022-09-03T22:48:51.948Z,4.13
2022-09-03T22:51:21.742Z,1.98
2022-09-03T22:54:07.119Z,3.17
2022-09-03T22:56:40.802Z,4.35
2022-09-03T22:59:33.320Z,1.20
2022-09-03T23:02:08.747Z,3.25
2022-09-03T23:05:24.943Z,1.25
2022-09-03T23:08:03.331Z,3.78
2022-09-03T23:10:34.174Z,5.97
2022-09-03T23:13:09.576Z,1.85
2022-09-03T23:15:39.794Z,8.00
2022-09-03T23:18:09.568Z,2.20
2022-09-03T23:20:40.971Z,4.30
2022-09-03T23:26:13.711Z,3.30
2022-09-03T23:28:54.602Z,2.60
2022-09-03T23:31:24.531Z,1.90
2022-09-03T23:33:55.458Z,2.78
2022-09-03T23:37:15.953Z,1.83
2022-09-03T23:40:31.528Z,1.35
2022-09-03T23:43:31.920Z,3.15
2022-09-03T23:46:20.569Z,4.93
2022-09-03T23:49:12.014Z,5.13
2022-09-03T23:52:12.506Z,2.67
2022-09-03T23:54:47.298Z,2.38
2022-09-03T23:57:19.851Z,2.00
